EGFF/CWL METAR and TAF weather

Enter ICAO airport designator
Station Type Date Time Source
EGFF METAR 2019/04/24 21:50 UTC NOAA

EGFF 242150Z AUTO 13010KT 9999 OVC016 10/08 Q0994


Station Type Date Time Source
EGFF Decoded METAR 2019/04/24 21:50 UTC NOAA

Cardiff-Wales Airport, United Kingdom (EGFF) 51-24N 003-21W 0M
Apr 24, 2019 - 05:50 PM EDT / 2019.04.24 2150 UTC
Wind: from the SE (130 degrees) at 12 MPH (10 KT):0
Visibility: greater than 7 mile(s):0
Sky conditions: overcast
Temperature: 50 F (10 C)
Dew Point: 46 F (8 C)
Relative Humidity: 87%
Pressure (altimeter): 29.35 in. Hg (0994 hPa)
ob: EGFF 242150Z AUTO 13010KT 9999 OVC016 10/08 Q0994
cycle: 22

Station Type Date Time Source
EGFF TAF 2019/04/24 18:15 UTC NOAA

TAF
AMD EGFF 241810Z 2418/2518 18007KT 9999 FEW040 PROB30
TEMPO 2418/2501 6000 SHRA
BECMG 2421/2424 10012KT
TEMPO 2501/2506 6000 RA SHRA BKN010 PROB30
TEMPO 2501/2506 11015G25KT BKN008
BECMG 2503/2506 17010KT
TEMPO 2509/2518 7000 SHRA PROB30
TEMPO 2509/2518 18015G25KT 4000 +SHRA SHGR BKN014 BKN030CB
BECMG 2515/2518 23010KT

Example: see airport list